sensor_id;sensor_type;location;lat;lon;timestamp;pressure;altitude;pressure_sealevel;temperature;humidity
73103;BME280;61294;65.988;29.172;2023-07-20T00:01:23;96668.53;;;13.61;100.00
73103;BME280;61294;65.988;29.172;2023-07-20T00:03:49;96655.81;;;13.51;100.00
73103;BME280;61294;65.988;29.172;2023-07-20T00:06:21;96668.47;;;13.63;100.00
73103;BME280;61294;65.988;29.172;2023-07-20T00:08:47;96661.28;;;13.65;100.00
73103;BME280;61294;65.988;29.172;2023-07-20T00:11:13;96673.44;;;13.69;100.00
73103;BME280;61294;65.988;29.172;2023-07-20T00:13:39;96667.47;;;13.66;100.00
73103;BME280;61294;65.988;29.172;2023-07-20T00:16:06;96658.97;;;13.59;100.00
73103;BME280;61294;65.988;29.172;2023-07-20T00:18:32;96653.50;;;13.62;100.00
73103;BME280;61294;65.988;29.172;2023-07-20T00:20:58;96654.22;;;13.66;100.00
73103;BME280;61294;65.988;29.172;2023-07-20T00:23:25;96668.31;;;13.66;100.00
73103;BME280;61294;65.988;29.172;2023-07-20T00:25:52;96642.41;;;13.55;100.00
73103;BME280;61294;65.988;29.172;2023-07-20T00:28:17;96645.03;;;13.55;100.00
73103;BME280;61294;65.988;29.172;2023-07-20T00:30:43;96664.25;;;13.59;100.00
73103;BME280;61294;65.988;29.172;2023-07-20T00:33:10;96652.56;;;13.45;100.00
73103;BME280;61294;65.988;29.172;2023-07-20T00:35:37;96659.47;;;13.48;100.00
73103;BME280;61294;65.988;29.172;2023-07-20T00:38:03;96655.06;;;13.49;100.00
73103;BME280;61294;65.988;29.172;2023-07-20T00:40:38;96646.53;;;13.42;100.00
73103;BME280;61294;65.988;29.172;2023-07-20T00:43:05;96652.56;;;13.45;100.00
73103;BME280;61294;65.988;29.172;2023-07-20T00:45:31;96663.75;;;13.51;100.00
73103;BME280;61294;65.988;29.172;2023-07-20T00:47:58;96653.56;;;13.43;100.00
73103;BME280;61294;65.988;29.172;2023-07-20T00:50:26;96663.00;;;13.49;100.00
73103;BME280;61294;65.988;29.172;2023-07-20T00:52:52;96648.34;;;13.41;100.00
73103;BME280;61294;65.988;29.172;2023-07-20T00:55:19;96656.13;;;13.44;100.00
73103;BME280;61294;65.988;29.172;2023-07-20T00:57:44;96652.41;;;13.49;100.00
73103;BME280;61294;65.988;29.172;2023-07-20T01:00:11;96661.13;;;13.51;100.00
73103;BME280;61294;65.988;29.172;2023-07-20T01:02:37;96657.84;;;13.45;100.00
73103;BME280;61294;65.988;29.172;2023-07-20T01:05:04;96663.91;;;13.48;100.00
73103;BME280;61294;65.988;29.172;2023-07-20T01:07:38;96664.72;;;13.50;100.00
73103;BME280;61294;65.988;29.172;2023-07-20T01:12:53;96661.41;;;13.44;100.00
73103;BME280;61294;65.988;29.172;2023-07-20T01:15:20;96636.47;;;13.31;100.00
73103;BME280;61294;65.988;29.172;2023-07-20T01:17:46;96672.66;;;13.50;100.00
73103;BME280;61294;65.988;29.172;2023-07-20T01:20:16;96651.69;;;13.45;100.00
73103;BME280;61294;65.988;29.172;2023-07-20T01:23:01;96639.69;;;13.38;100.00
73103;BME280;61294;65.988;29.172;2023-07-20T01:29:06;96640.56;;;13.38;100.00
73103;BME280;61294;65.988;29.172;2023-07-20T01:31:38;96663.13;;;13.45;100.00
73103;BME280;61294;65.988;29.172;2023-07-20T01:34:08;96662.34;;;13.43;100.00
73103;BME280;61294;65.988;29.172;2023-07-20T01:36:38;96659.84;;;13.40;100.00
73103;BME280;61294;65.988;29.172;2023-07-20T01:39:04;96667.13;;;13.35;100.00
73103;BME280;61294;65.988;29.172;2023-07-20T01:41:31;96662.66;;;13.37;100.00
73103;BME280;61294;65.988;29.172;2023-07-20T01:44:00;96658.34;;;13.35;100.00
73103;BME280;61294;65.988;29.172;2023-07-20T01:46:26;96658.41;;;13.33;100.00
73103;BME280;61294;65.988;29.172;2023-07-20T01:48:52;96651.75;;;13.24;100.00
73103;BME280;61294;65.988;29.172;2023-07-20T01:51:18;96650.63;;;13.30;100.00
73103;BME280;61294;65.988;29.172;2023-07-20T01:53:44;96662.03;;;13.30;100.00
73103;BME280;61294;65.988;29.172;2023-07-20T01:56:10;96657.81;;;13.26;100.00
73103;BME280;61294;65.988;29.172;2023-07-20T01:58:38;96655.09;;;13.28;100.00
73103;BME280;61294;65.988;29.172;2023-07-20T02:01:04;96659.38;;;13.30;100.00
73103;BME280;61294;65.988;29.172;2023-07-20T02:03:30;96640.81;;;13.32;100.00
73103;BME280;61294;65.988;29.172;2023-07-20T02:05:56;96659.00;;;13.40;100.00
73103;BME280;61294;65.988;29.172;2023-07-20T02:08:22;96662.41;;;13.42;100.00
73103;BME280;61294;65.988;29.172;2023-07-20T02:10:48;96664.97;;;13.43;100.00
73103;BME280;61294;65.988;29.172;2023-07-20T02:13:15;96651.06;;;13.40;100.00
73103;BME280;61294;65.988;29.172;2023-07-20T02:15:41;96662.09;;;13.48;100.00
73103;BME280;61294;65.988;29.172;2023-07-20T02:18:12;96665.06;;;13.42;100.00
73103;BME280;61294;65.988;29.172;2023-07-20T02:20:40;96664.00;;;13.46;100.00
73103;BME280;61294;65.988;29.172;2023-07-20T02:23:06;96641.41;;;13.39;100.00
73103;BME280;61294;65.988;29.172;2023-07-20T02:25:32;96656.91;;;13.46;100.00
73103;BME280;61294;65.988;29.172;2023-07-20T02:27:58;96651.59;;;13.46;100.00
73103;BME280;61294;65.988;29.172;2023-07-20T02:30:24;96658.78;;;13.44;100.00
73103;BME280;61294;65.988;29.172;2023-07-20T02:32:49;96655.47;;;13.39;100.00
73103;BME280;61294;65.988;29.172;2023-07-20T02:35:16;96644.81;;;13.41;100.00
73103;BME280;61294;65.988;29.172;2023-07-20T02:37:42;96631.91;;;13.35;100.00
73103;BME280;61294;65.988;29.172;2023-07-20T02:40:08;96632.63;;;13.38;100.00
73103;BME280;61294;65.988;29.172;2023-07-20T02:42:35;96644.69;;;13.44;100.00
73103;BME280;61294;65.988;29.172;2023-07-20T02:45:04;96635.88;;;13.43;100.00
73103;BME280;61294;65.988;29.172;2023-07-20T02:47:30;96632.25;;;13.46;100.00
73103;BME280;61294;65.988;29.172;2023-07-20T02:49:56;96647.59;;;13.57;100.00
73103;BME280;61294;65.988;29.172;2023-07-20T02:52:22;96639.25;;;13.47;100.00
73103;BME280;61294;65.988;29.172;2023-07-20T02:54:48;96645.03;;;13.55;100.00
73103;BME280;61294;65.988;29.172;2023-07-20T02:57:14;96637.09;;;13.55;100.00
73103;BME280;61294;65.988;29.172;2023-07-20T02:59:40;96650.63;;;13.67;100.00
73103;BME280;61294;65.988;29.172;2023-07-20T03:02:05;96652.06;;;13.74;100.00
73103;BME280;61294;65.988;29.172;2023-07-20T03:04:35;96633.91;;;13.66;100.00
73103;BME280;61294;65.988;29.172;2023-07-20T03:07:04;96644.97;;;13.74;100.00
73103;BME280;61294;65.988;29.172;2023-07-20T03:09:30;96636.13;;;13.75;100.00
73103;BME280;61294;65.988;29.172;2023-07-20T03:11:56;96631.59;;;13.77;100.00
73103;BME280;61294;65.988;29.172;2023-07-20T03:14:21;96627.38;;;13.73;100.00
73103;BME280;61294;65.988;29.172;2023-07-20T03:16:49;96630.81;;;13.75;100.00
73103;BME280;61294;65.988;29.172;2023-07-20T03:19:15;96628.69;;;13.64;100.00
73103;BME280;61294;65.988;29.172;2023-07-20T03:21:41;96623.97;;;13.71;100.00
73103;BME280;61294;65.988;29.172;2023-07-20T03:24:10;96603.09;;;13.65;100.00
73103;BME280;61294;65.988;29.172;2023-07-20T03:26:36;96625.47;;;13.77;100.00
73103;BME280;61294;65.988;29.172;2023-07-20T03:29:03;96616.56;;;13.78;100.00
73103;BME280;61294;65.988;29.172;2023-07-20T03:31:29;96596.50;;;13.74;100.00
73103;BME280;61294;65.988;29.172;2023-07-20T03:33:55;96605.13;;;13.77;100.00
73103;BME280;61294;65.988;29.172;2023-07-20T03:36:21;96621.41;;;13.87;100.00
73103;BME280;61294;65.988;29.172;2023-07-20T03:38:47;96621.66;;;13.83;100.00
73103;BME280;61294;65.988;29.172;2023-07-20T03:41:13;96592.22;;;13.71;100.00
73103;BME280;61294;65.988;29.172;2023-07-20T03:43:41;96621.56;;;13.84;100.00
73103;BME280;61294;65.988;29.172;2023-07-20T03:46:06;96621.72;;;13.81;100.00
73103;BME280;61294;65.988;29.172;2023-07-20T03:48:33;96621.72;;;13.81;100.00
73103;BME280;61294;65.988;29.172;2023-07-20T03:50:59;96612.16;;;13.78;100.00
73103;BME280;61294;65.988;29.172;2023-07-20T03:53:26;96614.22;;;13.89;100.00
73103;BME280;61294;65.988;29.172;2023-07-20T03:55:52;96634.78;;;14.02;100.00
73103;BME280;61294;65.988;29.172;2023-07-20T03:58:19;96636.69;;;14.00;100.00
73103;BME280;61294;65.988;29.172;2023-07-20T04:00:49;96627.94;;;13.97;100.00
73103;BME280;61294;65.988;29.172;2023-07-20T04:03:19;96628.94;;;13.95;100.00
73103;BME280;61294;65.988;29.172;2023-07-20T04:05:45;96637.69;;;13.97;100.00
73103;BME280;61294;65.988;29.172;2023-07-20T04:08:11;96631.31;;;14.01;100.00
73103;BME280;61294;65.988;29.172;2023-07-20T04:10:37;96626.47;;;13.92;100.00
73103;BME280;61294;65.988;29.172;2023-07-20T04:13:04;96633.72;;;13.88;100.00
73103;BME280;61294;65.988;29.172;2023-07-20T04:15:30;96630.03;;;13.91;100.00
73103;BME280;61294;65.988;29.172;2023-07-20T04:17:56;96624.53;;;13.95;100.00
73103;BME280;61294;65.988;29.172;2023-07-20T04:20:23;96624.28;;;13.83;100.00
73103;BME280;61294;65.988;29.172;2023-07-20T04:22:49;96613.78;;;13.81;100.00
73103;BME280;61294;65.988;29.172;2023-07-20T04:25:15;96608.50;;;13.81;100.00
73103;BME280;61294;65.988;29.172;2023-07-20T04:27:41;96595.56;;;13.75;100.00
73103;BME280;61294;65.988;29.172;2023-07-20T04:30:08;96629.59;;;13.83;100.00
73103;BME280;61294;65.988;29.172;2023-07-20T04:32:34;96617.91;;;13.87;100.00
73103;BME280;61294;65.988;29.172;2023-07-20T04:35:00;96625.91;;;13.85;100.00
73103;BME280;61294;65.988;29.172;2023-07-20T04:37:26;96585.28;;;13.69;100.00
73103;BME280;61294;65.988;29.172;2023-07-20T04:39:51;96626.69;;;13.87;100.00
73103;BME280;61294;65.988;29.172;2023-07-20T04:42:17;96625.69;;;13.90;100.00
73103;BME280;61294;65.988;29.172;2023-07-20T04:44:45;96592.06;;;13.74;100.00
73103;BME280;61294;65.988;29.172;2023-07-20T04:47:10;96616.34;;;13.83;100.00
73103;BME280;61294;65.988;29.172;2023-07-20T04:49:36;96605.91;;;13.79;100.00
73103;BME280;61294;65.988;29.172;2023-07-20T04:52:02;96601.78;;;13.91;100.00
73103;BME280;61294;65.988;29.172;2023-07-20T04:54:28;96602.72;;;13.73;100.00
73103;BME280;61294;65.988;29.172;2023-07-20T04:56:54;96610.75;;;13.71;100.00
73103;BME280;61294;65.988;29.172;2023-07-20T04:59:19;96613.38;;;13.71;100.00
73103;BME280;61294;65.988;29.172;2023-07-20T05:01:45;96608.69;;;13.76;100.00
73103;BME280;61294;65.988;29.172;2023-07-20T05:04:11;96595.09;;;13.84;100.00
73103;BME280;61294;65.988;29.172;2023-07-20T05:06:36;96592.94;;;13.92;100.00
73103;BME280;61294;65.988;29.172;2023-07-20T05:09:04;96599.06;;;13.93;100.00
73103;BME280;61294;65.988;29.172;2023-07-20T05:11:32;96600.47;;;14.00;100.00
73103;BME280;61294;65.988;29.172;2023-07-20T05:13:57;96596.19;;;13.97;100.00
73103;BME280;61294;65.988;29.172;2023-07-20T05:16:23;96600.78;;;13.94;100.00
73103;BME280;61294;65.988;29.172;2023-07-20T05:18:49;96593.63;;;13.96;100.00
73103;BME280;61294;65.988;29.172;2023-07-20T05:21:14;96584.81;;;13.95;100.00
73103;BME280;61294;65.988;29.172;2023-07-20T05:23:40;96594.22;;;13.84;100.00
73103;BME280;61294;65.988;29.172;2023-07-20T05:26:06;96560.16;;;13.60;100.00
73103;BME280;61294;65.988;29.172;2023-07-20T05:28:31;96538.84;;;13.45;100.00
73103;BME280;61294;65.988;29.172;2023-07-20T05:30:57;96597.59;;;13.87;100.00
73103;BME280;61294;65.988;29.172;2023-07-20T05:33:24;96596.34;;;13.94;100.00
73103;BME280;61294;65.988;29.172;2023-07-20T05:35:50;96595.41;;;13.95;100.00
73103;BME280;61294;65.988;29.172;2023-07-20T05:38:16;96594.63;;;13.93;100.00
73103;BME280;61294;65.988;29.172;2023-07-20T05:40:43;96584.75;;;13.97;100.00
73103;BME280;61294;65.988;29.172;2023-07-20T05:43:10;96596.72;;;14.04;100.00
73103;BME280;61294;65.988;29.172;2023-07-20T05:45:36;96599.53;;;14.01;100.00
73103;BME280;61294;65.988;29.172;2023-07-20T05:48:02;96599.28;;;14.06;100.00
73103;BME280;61294;65.988;29.172;2023-07-20T05:50:27;96574.16;;;13.97;100.00
73103;BME280;61294;65.988;29.172;2023-07-20T05:52:53;96597.19;;;14.12;100.00
73103;BME280;61294;65.988;29.172;2023-07-20T05:55:19;96592.66;;;14.14;100.00
73103;BME280;61294;65.988;29.172;2023-07-20T05:57:45;96594.47;;;14.14;100.00
73103;BME280;61294;65.988;29.172;2023-07-20T06:00:13;96592.81;;;14.11;100.00
73103;BME280;61294;65.988;29.172;2023-07-20T06:02:39;96595.16;;;14.18;100.00
73103;BME280;61294;65.988;29.172;2023-07-20T06:05:08;96592.19;;;14.24;100.00
73103;BME280;61294;65.988;29.172;2023-07-20T06:07:37;96590.66;;;14.20;100.00
73103;BME280;61294;65.988;29.172;2023-07-20T06:10:05;96588.06;;;14.18;100.00
73103;BME280;61294;65.988;29.172;2023-07-20T06:12:31;96595.94;;;14.20;100.00
73103;BME280;61294;65.988;29.172;2023-07-20T06:17:26;96584.47;;;14.19;100.00
73103;BME280;61294;65.988;29.172;2023-07-20T06:19:51;96590.84;;;14.15;100.00
73103;BME280;61294;65.988;29.172;2023-07-20T06:22:17;96580.69;;;14.07;100.00
73103;BME280;61294;65.988;29.172;2023-07-20T06:24:43;96585.34;;;14.20;100.00
73103;BME280;61294;65.988;29.172;2023-07-20T06:27:08;96575.22;;;14.10;100.00
73103;BME280;61294;65.988;29.172;2023-07-20T06:29:34;96574.63;;;14.05;100.00
73103;BME280;61294;65.988;29.172;2023-07-20T06:32:00;96569.63;;;13.99;100.00
73103;BME280;61294;65.988;29.172;2023-07-20T06:34:26;96578.56;;;13.96;100.00
73103;BME280;61294;65.988;29.172;2023-07-20T06:36:51;96580.13;;;14.01;100.00
73103;BME280;61294;65.988;29.172;2023-07-20T06:39:17;96583.94;;;13.95;100.00
73103;BME280;61294;65.988;29.172;2023-07-20T06:41:43;96579.28;;;14.00;100.00
73103;BME280;61294;65.988;29.172;2023-07-20T06:44:08;96579.91;;;14.05;100.00
73103;BME280;61294;65.988;29.172;2023-07-20T06:46:34;96524.66;;;13.81;100.00
73103;BME280;61294;65.988;29.172;2023-07-20T06:49:00;96583.78;;;14.15;100.00
73103;BME280;61294;65.988;29.172;2023-07-20T06:51:26;96578.66;;;14.12;100.00
73103;BME280;61294;65.988;29.172;2023-07-20T06:53:51;96582.31;;;14.10;100.00
73103;BME280;61294;65.988;29.172;2023-07-20T06:56:17;96582.06;;;14.14;100.00
73103;BME280;61294;65.988;29.172;2023-07-20T06:58:43;96583.00;;;14.13;100.00
73103;BME280;61294;65.988;29.172;2023-07-20T07:01:08;96587.53;;;14.11;100.00
73103;BME280;61294;65.988;29.172;2023-07-20T07:03:35;96565.97;;;14.02;100.00
73103;BME280;61294;65.988;29.172;2023-07-20T07:06:02;96591.19;;;14.09;100.00
73103;BME280;61294;65.988;29.172;2023-07-20T07:08:27;96587.44;;;14.13;100.00
73103;BME280;61294;65.988;29.172;2023-07-20T07:10:53;96552.53;;;14.22;100.00
73103;BME280;61294;65.988;29.172;2023-07-20T07:13:19;96558.19;;;14.32;100.00
73103;BME280;61294;65.988;29.172;2023-07-20T07:15:45;96553.56;;;14.20;100.00
73103;BME280;61294;65.988;29.172;2023-07-20T07:18:11;96580.47;;;14.45;100.00
73103;BME280;61294;65.988;29.172;2023-07-20T07:20:37;96572.81;;;14.39;100.00
73103;BME280;61294;65.988;29.172;2023-07-20T07:23:03;96566.94;;;14.67;100.00
73103;BME280;61294;65.988;29.172;2023-07-20T07:25:29;96573.13;;;14.84;100.00
73103;BME280;61294;65.988;29.172;2023-07-20T07:27:55;96578.22;;;14.71;100.00
73103;BME280;61294;65.988;29.172;2023-07-20T07:30:21;96572.84;;;14.73;100.00
73103;BME280;61294;65.988;29.172;2023-07-20T07:32:47;96577.88;;;14.77;100.00
73103;BME280;61294;65.988;29.172;2023-07-20T07:35:13;96579.09;;;14.88;100.00
73103;BME280;61294;65.988;29.172;2023-07-20T07:37:39;96559.44;;;14.92;100.00
73103;BME280;61294;65.988;29.172;2023-07-20T07:40:05;96580.63;;;15.08;100.00
73103;BME280;61294;65.988;29.172;2023-07-20T07:42:31;96574.66;;;15.04;100.00
73103;BME280;61294;65.988;29.172;2023-07-20T07:44:57;96570.72;;;15.11;100.00
73103;BME280;61294;65.988;29.172;2023-07-20T07:47:23;96567.72;;;15.17;100.00
73103;BME280;61294;65.988;29.172;2023-07-20T07:49:49;96530.25;;;14.92;100.00
73103;BME280;61294;65.988;29.172;2023-07-20T07:52:15;96587.50;;;15.28;100.00
73103;BME280;61294;65.988;29.172;2023-07-20T07:54:41;96577.56;;;15.15;100.00
73103;BME280;61294;65.988;29.172;2023-07-20T07:57:07;96577.03;;;15.25;100.00
73103;BME280;61294;65.988;29.172;2023-07-20T07:59:32;96577.13;;;15.39;100.00
73103;BME280;61294;65.988;29.172;2023-07-20T08:02:03;96567.72;;;15.33;100.00
73103;BME280;61294;65.988;29.172;2023-07-20T08:04:30;96561.34;;;15.36;100.00
73103;BME280;61294;65.988;29.172;2023-07-20T08:06:56;96585.00;;;15.09;100.00
73103;BME280;61294;65.988;29.172;2023-07-20T08:09:22;96585.34;;;14.87;100.00
73103;BME280;61294;65.988;29.172;2023-07-20T08:11:47;96584.34;;;15.05;100.00
73103;BME280;61294;65.988;29.172;2023-07-20T08:14:15;96559.69;;;15.03;100.00
73103;BME280;61294;65.988;29.172;2023-07-20T08:16:41;96589.09;;;15.14;100.00
73103;BME280;61294;65.988;29.172;2023-07-20T08:19:07;96587.75;;;15.07;100.00
73103;BME280;61294;65.988;29.172;2023-07-20T08:21:32;96599.53;;;15.01;100.00
73103;BME280;61294;65.988;29.172;2023-07-20T08:23:58;96592.28;;;15.05;100.00
73103;BME280;61294;65.988;29.172;2023-07-20T08:26:24;96591.75;;;14.98;100.00
73103;BME280;61294;65.988;29.172;2023-07-20T08:28:49;96581.25;;;14.97;100.00
73103;BME280;61294;65.988;29.172;2023-07-20T08:31:15;96581.50;;;15.24;100.00
73103;BME280;61294;65.988;29.172;2023-07-20T08:33:41;96601.78;;;15.71;100.00
73103;BME280;61294;65.988;29.172;2023-07-20T08:36:07;96597.38;;;16.02;100.00
73103;BME280;61294;65.988;29.172;2023-07-20T08:38:33;96611.91;;;15.81;100.00
73103;BME280;61294;65.988;29.172;2023-07-20T08:40:59;96588.56;;;15.56;100.00
73103;BME280;61294;65.988;29.172;2023-07-20T08:43:27;96603.53;;;15.57;100.00
73103;BME280;61294;65.988;29.172;2023-07-20T08:45:57;96583.59;;;15.49;100.00
73103;BME280;61294;65.988;29.172;2023-07-20T08:48:24;96594.59;;;15.90;100.00
73103;BME280;61294;65.988;29.172;2023-07-20T08:50:52;96584.13;;;16.60;99.39
73103;BME280;61294;65.988;29.172;2023-07-20T08:53:20;96576.22;;;17.16;97.08
73103;BME280;61294;65.988;29.172;2023-07-20T08:55:48;96581.41;;;17.32;96.18
73103;BME280;61294;65.988;29.172;2023-07-20T08:58:15;96585.75;;;16.91;94.07
73103;BME280;61294;65.988;29.172;2023-07-20T09:00:42;96589.72;;;17.13;95.57
73103;BME280;61294;65.988;29.172;2023-07-20T09:03:08;96595.78;;;17.15;94.49
73103;BME280;61294;65.988;29.172;2023-07-20T09:05:35;96588.19;;;17.51;93.71
73103;BME280;61294;65.988;29.172;2023-07-20T09:08:01;96575.06;;;17.75;90.34
73103;BME280;61294;65.988;29.172;2023-07-20T09:10:29;96602.47;;;17.35;91.44
73103;BME280;61294;65.988;29.172;2023-07-20T09:12:55;96589.47;;;17.31;91.18
73103;BME280;61294;65.988;29.172;2023-07-20T09:15:22;96618.41;;;17.77;90.39
73103;BME280;61294;65.988;29.172;2023-07-20T09:17:49;96592.28;;;17.69;87.65
73103;BME280;61294;65.988;29.172;2023-07-20T09:20:17;96620.53;;;17.72;89.86
73103;BME280;61294;65.988;29.172;2023-07-20T09:22:43;96602.53;;;17.48;90.19
73103;BME280;61294;65.988;29.172;2023-07-20T09:25:13;96608.38;;;17.40;91.66
73103;BME280;61294;65.988;29.172;2023-07-20T09:27:41;96593.25;;;17.41;91.83
73103;BME280;61294;65.988;29.172;2023-07-20T09:30:08;96584.91;;;17.87;90.74
73103;BME280;61294;65.988;29.172;2023-07-20T09:32:47;96605.25;;;18.41;88.22
73103;BME280;61294;65.988;29.172;2023-07-20T09:35:19;96606.16;;;17.74;87.37
73103;BME280;61294;65.988;29.172;2023-07-20T09:38:05;96566.38;;;17.04;89.49
73103;BME280;61294;65.988;29.172;2023-07-20T09:40:37;96611.28;;;17.23;88.98
73103;BME280;61294;65.988;29.172;2023-07-20T09:43:08;96602.84;;;16.87;89.73
73103;BME280;61294;65.988;29.172;2023-07-20T09:45:41;96605.59;;;16.57;91.53
73103;BME280;61294;65.988;29.172;2023-07-20T09:48:09;96628.34;;;16.32;91.36
73103;BME280;61294;65.988;29.172;2023-07-20T09:50:49;96640.13;;;16.43;92.70
73103;BME280;61294;65.988;29.172;2023-07-20T09:53:17;96634.25;;;16.37;91.14
73103;BME280;61294;65.988;29.172;2023-07-20T09:55:47;96641.53;;;16.34;90.94
73103;BME280;61294;65.988;29.172;2023-07-20T09:58:14;96645.25;;;16.60;91.73
73103;BME280;61294;65.988;29.172;2023-07-20T10:00:41;96597.91;;;16.38;91.77
73103;BME280;61294;65.988;29.172;2023-07-20T10:03:14;96626.94;;;16.41;91.04
73103;BME280;61294;65.988;29.172;2023-07-20T10:05:45;96643.38;;;16.48;92.89
73103;BME280;61294;65.988;29.172;2023-07-20T10:08:12;96646.97;;;16.61;92.83
73103;BME280;61294;65.988;29.172;2023-07-20T10:10:41;96639.78;;;16.63;90.00
73103;BME280;61294;65.988;29.172;2023-07-20T10:13:21;96639.00;;;16.76;89.99
73103;BME280;61294;65.988;29.172;2023-07-20T10:15:54;96641.97;;;16.71;90.86
73103;BME280;61294;65.988;29.172;2023-07-20T10:18:29;96628.97;;;16.66;91.30
73103;BME280;61294;65.988;29.172;2023-07-20T10:20:56;96653.91;;;16.64;92.57
73103;BME280;61294;65.988;29.172;2023-07-20T10:23:26;96657.25;;;16.22;93.13
73103;BME280;61294;65.988;29.172;2023-07-20T10:25:54;96642.03;;;16.10;92.39
73103;BME280;61294;65.988;29.172;2023-07-20T10:28:20;96655.34;;;16.25;93.57
73103;BME280;61294;65.988;29.172;2023-07-20T10:30:48;96646.81;;;16.19;92.87
73103;BME280;61294;65.988;29.172;2023-07-20T10:33:17;96633.69;;;16.02;93.86
73103;BME280;61294;65.988;29.172;2023-07-20T10:35:53;96647.06;;;16.00;93.90
73103;BME280;61294;65.988;29.172;2023-07-20T10:38:20;96666.81;;;16.11;94.75
73103;BME280;61294;65.988;29.172;2023-07-20T10:40:55;96663.31;;;16.25;93.83
73103;BME280;61294;65.988;29.172;2023-07-20T10:43:21;96670.31;;;16.11;94.35
73103;BME280;61294;65.988;29.172;2023-07-20T10:45:52;96674.38;;;16.02;94.95
73103;BME280;61294;65.988;29.172;2023-07-20T10:48:23;96670.88;;;16.02;93.41
73103;BME280;61294;65.988;29.172;2023-07-20T10:53:36;96666.53;;;15.85;94.67
73103;BME280;61294;65.988;29.172;2023-07-20T10:56:12;96652.28;;;16.02;95.02
73103;BME280;61294;65.988;29.172;2023-07-20T10:58:42;96645.34;;;15.99;95.05
73103;BME280;61294;65.988;29.172;2023-07-20T11:01:08;96658.13;;;15.93;94.70
73103;BME280;61294;65.988;29.172;2023-07-20T11:03:39;96663.13;;;16.13;94.08
73103;BME280;61294;65.988;29.172;2023-07-20T11:09:02;96659.63;;;16.27;93.62
73103;BME280;61294;65.988;29.172;2023-07-20T11:11:34;96665.97;;;16.84;91.87
73103;BME280;61294;65.988;29.172;2023-07-20T11:14:03;96659.63;;;17.30;89.33
73103;BME280;61294;65.988;29.172;2023-07-20T11:19:12;96658.06;;;17.40;87.90
73103;BME280;61294;65.988;29.172;2023-07-20T11:21:41;96655.72;;;18.04;85.83
73103;BME280;61294;65.988;29.172;2023-07-20T11:24:07;96665.47;;;18.57;83.48
73103;BME280;61294;65.988;29.172;2023-07-20T11:26:49;96663.91;;;18.67;81.77
73103;BME280;61294;65.988;29.172;2023-07-20T11:29:19;96673.19;;;18.74;81.43
73103;BME280;61294;65.988;29.172;2023-07-20T11:31:46;96664.44;;;18.85;80.38
73103;BME280;61294;65.988;29.172;2023-07-20T11:34:14;96663.75;;;19.46;79.30
73103;BME280;61294;65.988;29.172;2023-07-20T11:36:48;96652.59;;;19.89;76.84
73103;BME280;61294;65.988;29.172;2023-07-20T11:39:16;96622.09;;;20.16;72.98
73103;BME280;61294;65.988;29.172;2023-07-20T11:41:50;96658.06;;;19.75;72.50
73103;BME280;61294;65.988;29.172;2023-07-20T11:44:20;96673.38;;;19.73;74.60
73103;BME280;61294;65.988;29.172;2023-07-20T11:47:13;96655.56;;;19.23;75.46
73103;BME280;61294;65.988;29.172;2023-07-20T11:49:42;96675.78;;;18.89;77.03
73103;BME280;61294;65.988;29.172;2023-07-20T11:52:11;96660.78;;;18.48;77.32
73103;BME280;61294;65.988;29.172;2023-07-20T11:54:39;96663.81;;;18.82;78.03
73103;BME280;61294;65.988;29.172;2023-07-20T11:57:05;96663.69;;;18.70;77.25
73103;BME280;61294;65.988;29.172;2023-07-20T11:59:32;96689.41;;;18.18;78.34
73103;BME280;61294;65.988;29.172;2023-07-20T12:02:01;96693.00;;;18.04;80.14
73103;BME280;61294;65.988;29.172;2023-07-20T12:04:28;96687.47;;;17.80;81.49
73103;BME280;61294;65.988;29.172;2023-07-20T12:06:54;96693.13;;;17.47;83.29
73103;BME280;61294;65.988;29.172;2023-07-20T12:09:20;96682.25;;;17.22;83.47
73103;BME280;61294;65.988;29.172;2023-07-20T12:11:49;96681.84;;;17.29;84.10
73103;BME280;61294;65.988;29.172;2023-07-20T12:14:15;96687.84;;;17.32;84.03
73103;BME280;61294;65.988;29.172;2023-07-20T12:16:41;96669.34;;;17.02;85.18
73103;BME280;61294;65.988;29.172;2023-07-20T12:19:08;96686.16;;;16.88;84.87
73103;BME280;61294;65.988;29.172;2023-07-20T12:21:36;96675.38;;;16.75;85.90
73103;BME280;61294;65.988;29.172;2023-07-20T12:24:08;96683.19;;;16.93;87.23
73103;BME280;61294;65.988;29.172;2023-07-20T12:26:35;96687.56;;;16.94;86.88
73103;BME280;61294;65.988;29.172;2023-07-20T12:29:01;96685.34;;;16.71;86.57
73103;BME280;61294;65.988;29.172;2023-07-20T12:31:29;96675.19;;;16.78;87.67
73103;BME280;61294;65.988;29.172;2023-07-20T12:33:56;96680.59;;;16.62;87.70
73103;BME280;61294;65.988;29.172;2023-07-20T12:36:22;96681.81;;;16.56;87.65
73103;BME280;61294;65.988;29.172;2023-07-20T12:38:49;96672.09;;;16.41;88.46
73103;BME280;61294;65.988;29.172;2023-07-20T12:41:15;96693.38;;;16.55;89.07
73103;BME280;61294;65.988;29.172;2023-07-20T12:43:41;96690.22;;;16.49;89.76
73103;BME280;61294;65.988;29.172;2023-07-20T12:46:08;96692.63;;;16.39;89.29
73103;BME280;61294;65.988;29.172;2023-07-20T12:48:35;96701.56;;;16.22;90.49
73103;BME280;61294;65.988;29.172;2023-07-20T12:51:02;96673.38;;;16.19;90.97
73103;BME280;61294;65.988;29.172;2023-07-20T12:53:29;96696.31;;;16.36;91.17
73103;BME280;61294;65.988;29.172;2023-07-20T12:55:55;96699.81;;;16.37;91.29
73103;BME280;61294;65.988;29.172;2023-07-20T12:58:20;96677.66;;;16.22;91.04
73103;BME280;61294;65.988;29.172;2023-07-20T13:00:46;96675.13;;;16.04;91.72